createdAt,value
2023-02-08T00:00:53.953Z,-2.27
2023-02-08T00:03:20.577Z,-2.29
2023-02-08T00:05:47.123Z,-2.31
2023-02-08T00:08:13.616Z,-2.33
2023-02-08T00:10:40.548Z,-2.35
2023-02-08T00:13:09.409Z,-2.37
2023-02-08T00:15:40.535Z,-2.39
2023-02-08T00:18:07.040Z,-2.39
2023-02-08T00:20:33.601Z,-2.41
2023-02-08T00:23:00.131Z,-2.43
2023-02-08T00:25:26.588Z,-2.45
2023-02-08T00:27:53.099Z,-2.46
2023-02-08T00:30:19.678Z,-2.47
2023-02-08T00:32:47.667Z,-2.48
2023-02-08T00:35:14.430Z,-2.47
2023-02-08T00:37:42.419Z,-2.48
2023-02-08T00:40:10.969Z,-2.50
2023-02-08T00:42:37.743Z,-2.53
2023-02-08T00:45:05.021Z,-2.54
2023-02-08T00:47:31.592Z,-2.55
2023-02-08T00:49:59.740Z,-2.57
2023-02-08T00:52:27.622Z,-2.59
2023-02-08T00:54:54.278Z,-2.59
2023-02-08T00:57:20.877Z,-2.61
2023-02-08T00:59:47.850Z,-2.60
2023-02-08T01:02:15.695Z,-2.61
2023-02-08T01:04:42.224Z,-2.61
2023-02-08T01:07:09.101Z,-2.62
2023-02-08T01:09:37.555Z,-2.63
2023-02-08T01:12:04.093Z,-2.64
2023-02-08T01:14:30.822Z,-2.65
2023-02-08T01:16:58.633Z,-2.66
2023-02-08T01:19:25.122Z,-2.68
2023-02-08T01:21:51.693Z,-2.71
2023-02-08T01:24:18.166Z,-2.73
2023-02-08T01:26:44.684Z,-2.75
2023-02-08T01:29:11.569Z,-2.75
2023-02-08T01:31:40.914Z,-2.76
2023-02-08T01:34:09.073Z,-2.77
2023-02-08T01:36:36.136Z,-2.77
2023-02-08T01:39:04.151Z,-2.79
2023-02-08T01:41:36.712Z,-2.78
2023-02-08T01:44:11.930Z,-2.78
2023-02-08T01:46:41.007Z,-2.80
2023-02-08T01:49:14.135Z,-2.80
2023-02-08T01:51:46.937Z,-2.79
2023-02-08T01:54:16.892Z,-2.80
2023-02-08T01:56:45.862Z,-2.81
2023-02-08T01:59:28.422Z,-2.82
2023-02-08T02:01:56.999Z,-2.81
2023-02-08T02:04:25.481Z,-2.82
2023-02-08T02:06:57.533Z,-2.84
2023-02-08T02:09:47.769Z,-2.86
2023-02-08T02:12:14.688Z,-2.87
2023-02-08T02:14:42.948Z,-2.89
2023-02-08T02:17:12.203Z,-2.91
2023-02-08T02:20:06.746Z,-2.94
2023-02-08T02:23:13.728Z,-2.99
2023-02-08T02:26:24.226Z,-3.00
2023-02-08T02:29:13.727Z,-3.02
2023-02-08T02:31:52.507Z,-3.04
2023-02-08T02:34:41.407Z,-3.05
2023-02-08T02:37:56.257Z,-3.07
2023-02-08T02:40:41.118Z,-3.08
2023-02-08T02:43:40.491Z,-3.09
2023-02-08T02:46:22.320Z,-3.08
2023-02-08T02:48:55.142Z,-3.10
2023-02-08T02:51:43.344Z,-3.11
2023-02-08T02:54:21.161Z,-3.11
2023-02-08T02:56:52.075Z,-3.13
2023-02-08T02:59:20.162Z,-3.14
2023-02-08T03:01:48.675Z,-3.16
2023-02-08T03:04:39.213Z,-3.19
2023-02-08T03:07:28.535Z,-3.20
2023-02-08T03:10:22.862Z,-3.20
2023-02-08T03:13:08.348Z,-3.20
2023-02-08T03:16:01.728Z,-3.20
2023-02-08T03:18:58.968Z,-3.22
2023-02-08T03:21:43.424Z,-3.25
2023-02-08T03:24:29.275Z,-3.27
2023-02-08T03:27:31.052Z,-3.31
2023-02-08T03:30:03.620Z,-3.31
2023-02-08T03:32:40.255Z,-3.31
2023-02-08T03:35:34.171Z,-3.31
2023-02-08T03:38:05.356Z,-3.31
2023-02-08T03:40:37.619Z,-3.31
2023-02-08T03:43:11.916Z,-3.32
2023-02-08T03:45:46.364Z,-3.31
2023-02-08T03:48:16.847Z,-3.33
2023-02-08T03:50:48.220Z,-3.32
2023-02-08T03:53:19.141Z,-3.33
2023-02-08T03:55:48.472Z,-3.34
2023-02-08T03:58:42.927Z,-3.37
2023-02-08T04:01:17.749Z,-3.37
2023-02-08T04:03:46.382Z,-3.36
2023-02-08T04:06:13.514Z,-3.35
2023-02-08T04:08:40.158Z,-3.37
2023-02-08T04:11:06.641Z,-3.38
2023-02-08T04:13:33.271Z,-3.38
2023-02-08T04:15:59.794Z,-3.37
2023-02-08T04:18:27.705Z,-3.38
2023-02-08T04:20:54.243Z,-3.40
2023-02-08T04:23:20.867Z,-3.41
2023-02-08T04:25:47.332Z,-3.41
2023-02-08T04:28:13.874Z,-3.41
2023-02-08T04:30:40.804Z,-3.43
2023-02-08T04:33:07.533Z,-3.43
2023-02-08T04:35:34.295Z,-3.44
2023-02-08T04:38:00.792Z,-3.46
2023-02-08T04:40:27.334Z,-3.46
2023-02-08T04:42:53.826Z,-3.49
2023-02-08T04:45:20.594Z,-3.48
2023-02-08T04:47:54.371Z,-3.48
2023-02-08T04:50:21.403Z,-3.47
2023-02-08T04:52:47.901Z,-3.48
2023-02-08T04:55:14.496Z,-3.47
2023-02-08T04:57:41.329Z,-3.50
2023-02-08T05:00:08.668Z,-3.50
2023-02-08T05:02:35.646Z,-3.51
2023-02-08T05:05:02.245Z,-3.51
2023-02-08T05:07:28.773Z,-3.51
2023-02-08T05:09:55.212Z,-3.54
2023-02-08T05:12:21.690Z,-3.55
2023-02-08T05:14:48.120Z,-3.57
2023-02-08T05:17:14.665Z,-3.57
2023-02-08T05:19:41.700Z,-3.57
2023-02-08T05:22:08.466Z,-3.56
2023-02-08T05:24:35.033Z,-3.55
2023-02-08T05:27:01.547Z,-3.56
2023-02-08T05:29:28.164Z,-3.56
2023-02-08T05:31:54.778Z,-3.56
2023-02-08T05:34:21.276Z,-3.55
2023-02-08T05:36:47.722Z,-3.55
2023-02-08T05:39:14.354Z,-3.55
2023-02-08T05:41:40.810Z,-3.55
2023-02-08T05:44:07.262Z,-3.56
2023-02-08T05:46:38.001Z,-3.58
2023-02-08T05:49:04.841Z,-3.62
2023-02-08T05:51:32.575Z,-3.64
2023-02-08T05:53:59.177Z,-3.67
2023-02-08T05:56:25.692Z,-3.67
2023-02-08T05:58:52.164Z,-3.68
2023-02-08T06:01:18.842Z,-3.69
2023-02-08T06:03:45.536Z,-3.71
2023-02-08T06:06:12.078Z,-3.71
2023-02-08T06:08:39.419Z,-3.73
2023-02-08T06:11:06.811Z,-3.71
2023-02-08T06:13:33.355Z,-3.71
2023-02-08T06:15:59.858Z,-3.70
2023-02-08T06:18:27.184Z,-3.70
2023-02-08T06:20:54.904Z,-3.71
2023-02-08T06:23:22.090Z,-3.72
2023-02-08T06:25:48.580Z,-3.72
2023-02-08T06:28:15.113Z,-3.72
2023-02-08T06:30:43.372Z,-3.72
2023-02-08T06:33:10.095Z,-3.74
2023-02-08T06:35:36.648Z,-3.74
2023-02-08T06:38:03.166Z,-3.74
2023-02-08T06:40:29.660Z,-3.74
2023-02-08T06:42:56.567Z,-3.74
2023-02-08T06:45:23.110Z,-3.71
2023-02-08T06:47:49.548Z,-3.71
2023-02-08T06:50:16.156Z,-3.69
2023-02-08T06:52:42.659Z,-3.68
2023-02-08T06:55:09.266Z,-3.67
2023-02-08T06:57:36.094Z,-3.64
2023-02-08T07:00:04.270Z,-3.61
2023-02-08T07:02:31.118Z,-3.59
2023-02-08T07:04:57.673Z,-3.53
2023-02-08T07:07:24.257Z,-3.50
2023-02-08T07:09:50.765Z,-3.47
2023-02-08T07:12:17.273Z,-3.44
2023-02-08T07:14:44.173Z,-3.43
2023-02-08T07:17:12.046Z,-3.40
2023-02-08T07:19:39.011Z,-3.38
2023-02-08T07:22:08.902Z,-3.34
2023-02-08T07:24:38.686Z,-3.30
2023-02-08T07:27:07.138Z,-3.22
2023-02-08T07:29:34.587Z,-3.17
2023-02-08T07:32:03.559Z,-3.14
2023-02-08T07:34:32.827Z,-3.13
2023-02-08T07:36:59.404Z,-3.14
2023-02-08T07:39:26.474Z,-3.16
2023-02-08T07:41:53.170Z,-3.14
2023-02-08T07:44:20.225Z,-3.13
2023-02-08T07:46:46.667Z,-3.12
2023-02-08T07:49:13.176Z,-3.10
2023-02-08T07:51:39.649Z,-3.10
2023-02-08T07:54:06.314Z,-3.08
2023-02-08T07:56:32.920Z,-3.06
2023-02-08T07:58:59.547Z,-3.01
2023-02-08T08:01:26.158Z,-2.96
2023-02-08T08:03:53.259Z,-2.90
2023-02-08T08:06:21.950Z,-2.84
2023-02-08T08:08:49.194Z,-2.79
2023-02-08T08:11:17.679Z,-2.71
2023-02-08T08:13:44.194Z,-2.65
2023-02-08T08:16:10.730Z,-2.59
2023-02-08T08:18:37.238Z,-2.51
2023-02-08T08:21:04.781Z,-2.45
2023-02-08T08:23:33.190Z,-2.36
2023-02-08T08:26:00.725Z,-2.29
2023-02-08T08:28:28.058Z,-2.23
2023-02-08T08:30:54.874Z,-2.15
2023-02-08T08:33:21.483Z,-2.07
2023-02-08T08:35:48.120Z,-2.01
2023-02-08T08:38:14.673Z,-1.96
2023-02-08T08:40:41.448Z,-1.88
2023-02-08T08:43:08.228Z,-1.82
2023-02-08T08:45:36.180Z,-1.75
2023-02-08T08:48:05.670Z,-1.69
2023-02-08T08:50:32.228Z,-1.63
2023-02-08T08:52:58.699Z,-1.56
2023-02-08T08:55:26.185Z,-1.48
2023-02-08T08:57:53.583Z,-1.41
2023-02-08T09:00:20.180Z,-1.32
2023-02-08T09:02:46.636Z,-1.26
2023-02-08T09:05:13.144Z,-1.19
2023-02-08T09:07:39.624Z,-1.13
2023-02-08T09:10:06.470Z,-1.06
2023-02-08T09:12:33.038Z,-0.99
2023-02-08T09:15:00.942Z,-0.91
2023-02-08T09:17:27.609Z,-0.85
2023-02-08T09:19:54.127Z,-0.78
2023-02-08T09:22:20.769Z,-0.72
2023-02-08T09:24:47.410Z,-0.65
2023-02-08T09:27:14.828Z,-0.62
2023-02-08T09:29:41.478Z,-0.54
2023-02-08T09:32:10.158Z,-0.47
2023-02-08T09:34:37.002Z,-0.40
2023-02-08T09:37:03.438Z,-0.31
2023-02-08T09:39:30.048Z,-0.21
2023-02-08T09:42:11.288Z,-0.13
2023-02-08T09:45:04.797Z,-0.06
2023-02-08T09:47:36.931Z,-0.03
2023-02-08T09:50:20.686Z,0.00
2023-02-08T09:53:00.247Z,0.00
2023-02-08T09:55:39.626Z,0.02
2023-02-08T09:58:35.839Z,0.06
2023-02-08T10:01:05.935Z,0.10
2023-02-08T10:03:42.462Z,0.14
2023-02-08T10:06:13.000Z,0.18
2023-02-08T10:08:40.696Z,0.22
2023-02-08T10:11:43.195Z,0.27
2023-02-08T10:14:40.114Z,0.34
2023-02-08T10:17:26.628Z,0.41
2023-02-08T10:20:28.543Z,0.47
2023-02-08T10:23:19.372Z,0.55
2023-02-08T10:26:15.774Z,0.63
2023-02-08T10:28:56.568Z,0.71
2023-02-08T10:32:01.710Z,0.78
2023-02-08T10:34:44.251Z,0.85
2023-02-08T10:37:12.964Z,0.94
2023-02-08T10:39:39.958Z,0.98
2023-02-08T10:42:19.631Z,1.03
2023-02-08T10:45:23.869Z,1.12
2023-02-08T10:47:54.693Z,1.22
2023-02-08T10:50:39.211Z,1.31
2023-02-08T10:53:06.522Z,1.38
2023-02-08T10:55:36.628Z,1.42
2023-02-08T10:58:06.151Z,1.48
2023-02-08T11:00:36.714Z,1.56
2023-02-08T11:03:21.778Z,1.63
2023-02-08T11:05:49.364Z,1.69
2023-02-08T11:08:22.683Z,1.75
2023-02-08T11:11:05.083Z,1.79
2023-02-08T11:13:42.631Z,1.88
2023-02-08T11:16:20.188Z,1.96
2023-02-08T11:18:52.142Z,2.01
2023-02-08T11:21:24.946Z,2.07
2023-02-08T11:23:53.828Z,2.11
2023-02-08T11:26:25.322Z,2.20
2023-02-08T11:29:06.071Z,2.29
2023-02-08T11:31:35.242Z,2.34
2023-02-08T11:34:09.621Z,2.43
2023-02-08T11:36:38.324Z,2.49
2023-02-08T11:39:23.146Z,2.58
2023-02-08T11:41:53.566Z,2.65
2023-02-08T11:44:27.950Z,2.73
2023-02-08T11:46:56.549Z,2.82
2023-02-08T11:49:26.074Z,2.91
2023-02-08T11:51:53.231Z,3.01
2023-02-08T11:54:41.388Z,3.09
2023-02-08T11:57:20.619Z,3.14
2023-02-08T11:59:48.550Z,3.22
2023-02-08T12:02:31.213Z,3.29
2023-02-08T12:04:59.015Z,3.31
2023-02-08T12:07:49.393Z,3.40
2023-02-08T12:10:30.859Z,3.47
2023-02-08T12:13:24.033Z,3.54
2023-02-08T12:16:06.131Z,3.60
2023-02-08T12:18:51.233Z,3.65
2023-02-08T12:21:21.916Z,3.69
2023-02-08T12:23:53.044Z,3.73
2023-02-08T12:26:42.081Z,3.76
2023-02-08T12:29:47.677Z,3.79
2023-02-08T12:32:42.733Z,3.86
2023-02-08T12:35:45.825Z,3.91
2023-02-08T12:38:55.400Z,3.93
2023-02-08T12:41:39.302Z,4.02
2023-02-08T12:44:41.210Z,4.07
2023-02-08T12:47:27.566Z,4.13
2023-02-08T12:50:23.951Z,4.14
2023-02-08T12:52:57.231Z,4.18
2023-02-08T12:55:26.364Z,4.22
2023-02-08T12:57:57.225Z,4.23
2023-02-08T13:00:32.637Z,4.27
2023-02-08T13:03:17.599Z,4.26
2023-02-08T13:06:01.775Z,4.27
2023-02-08T13:08:31.853Z,4.29
2023-02-08T13:11:17.868Z,4.32
2023-02-08T13:14:03.334Z,4.32
2023-02-08T13:16:40.377Z,4.37
2023-02-08T13:19:18.677Z,4.40
2023-02-08T13:21:46.128Z,4.42
2023-02-08T13:24:27.760Z,4.43
2023-02-08T13:26:54.277Z,4.46
2023-02-08T13:29:23.115Z,4.47
2023-02-08T13:31:56.640Z,4.50
2023-02-08T13:34:37.048Z,4.51
2023-02-08T13:37:16.640Z,4.52
2023-02-08T13:39:48.211Z,4.53
2023-02-08T13:42:33.576Z,4.52
2023-02-08T13:45:01.356Z,4.52
2023-02-08T13:47:32.806Z,4.51
2023-02-08T13:50:01.769Z,4.49
2023-02-08T13:52:47.143Z,4.46
2023-02-08T13:55:38.220Z,4.44
2023-02-08T13:58:34.314Z,4.42
2023-02-08T14:01:12.876Z,4.41
2023-02-08T14:03:39.363Z,4.38
2023-02-08T14:06:29.472Z,4.34
2023-02-08T14:09:17.394Z,4.34
2023-02-08T14:12:00.615Z,4.30
2023-02-08T14:14:31.263Z,4.27
2023-02-08T14:17:28.920Z,4.25
2023-02-08T14:20:01.677Z,4.19
2023-02-08T14:22:36.110Z,4.14
2023-02-08T14:25:07.940Z,4.09
2023-02-08T14:27:44.823Z,4.04
2023-02-08T14:30:11.671Z,3.99
2023-02-08T14:32:40.816Z,3.95
2023-02-08T14:35:07.492Z,3.93
2023-02-08T14:37:36.419Z,3.89
2023-02-08T14:40:23.598Z,3.84
2023-02-08T14:43:02.173Z,3.81
2023-02-08T14:45:39.989Z,3.75
2023-02-08T14:48:48.426Z,3.72
2023-02-08T14:51:28.126Z,3.68
2023-02-08T14:53:58.522Z,3.63
2023-02-08T14:56:31.921Z,3.59
2023-02-08T14:59:04.421Z,3.54
2023-02-08T15:01:45.419Z,3.49
2023-02-08T15:04:14.229Z,3.44
2023-02-08T15:07:13.425Z,3.38
2023-02-08T15:09:42.465Z,3.34
2023-02-08T15:12:17.583Z,3.29
2023-02-08T15:14:44.257Z,3.26
2023-02-08T15:17:24.525Z,3.22
2023-02-08T15:19:52.333Z,3.19
2023-02-08T15:22:39.756Z,3.14
2023-02-08T15:25:30.091Z,3.07
2023-02-08T15:28:01.831Z,3.04
2023-02-08T15:30:35.061Z,2.99
2023-02-08T15:33:08.400Z,2.94
2023-02-08T15:35:35.928Z,2.89
2023-02-08T15:38:06.995Z,2.85
2023-02-08T15:40:35.074Z,2.82
2023-02-08T15:43:12.468Z,2.79
2023-02-08T15:45:39.433Z,2.76
2023-02-08T15:48:07.512Z,2.75
2023-02-08T15:50:35.829Z,2.69
2023-02-08T15:53:06.154Z,2.66
2023-02-08T15:55:44.271Z,2.61
2023-02-08T15:58:31.820Z,2.56
2023-02-08T16:01:00.622Z,2.52
2023-02-08T16:03:29.429Z,2.47
2023-02-08T16:05:59.757Z,2.43
2023-02-08T16:08:30.595Z,2.37
2023-02-08T16:11:04.395Z,2.28
2023-02-08T16:13:35.046Z,2.20
2023-02-08T16:16:15.706Z,2.11
2023-02-08T16:18:58.257Z,2.04
2023-02-08T16:21:24.680Z,1.96
2023-02-08T16:24:05.111Z,1.89
2023-02-08T16:26:36.538Z,1.80
2023-02-08T16:29:09.644Z,1.74
2023-02-08T16:31:36.539Z,1.68
2023-02-08T16:34:06.412Z,1.62
2023-02-08T16:36:40.397Z,1.57
2023-02-08T16:39:22.512Z,1.52
2023-02-08T16:42:16.034Z,1.46
2023-02-08T16:45:02.860Z,1.40
2023-02-08T16:47:38.319Z,1.35
2023-02-08T16:50:10.951Z,1.30
2023-02-08T16:52:37.531Z,1.25
2023-02-08T16:55:05.346Z,1.21
2023-02-08T16:57:47.378Z,1.16
2023-02-08T17:00:26.093Z,1.13
2023-02-08T17:02:54.216Z,1.11
2023-02-08T17:05:27.186Z,1.07
2023-02-08T17:07:55.095Z,1.03
2023-02-08T17:10:32.681Z,0.99
2023-02-08T17:13:19.389Z,0.93
2023-02-08T17:15:51.606Z,0.90
2023-02-08T17:18:22.581Z,0.88
2023-02-08T17:20:49.111Z,0.84
2023-02-08T17:23:15.848Z,0.80
2023-02-08T17:25:43.478Z,0.77
2023-02-08T17:28:18.701Z,0.75
2023-02-08T17:30:46.862Z,0.71
2023-02-08T17:33:19.826Z,0.69
2023-02-08T17:35:50.852Z,0.65
2023-02-08T17:38:19.090Z,0.64
2023-02-08T17:40:46.160Z,0.60
2023-02-08T17:43:14.917Z,0.57
2023-02-08T17:45:43.755Z,0.55
2023-02-08T17:48:13.299Z,0.52
2023-02-08T17:50:42.825Z,0.50
2023-02-08T17:53:09.926Z,0.48
2023-02-08T17:55:36.415Z,0.46
2023-02-08T17:58:02.956Z,0.42
2023-02-08T18:00:29.415Z,0.38
2023-02-08T18:03:00.477Z,0.36
2023-02-08T18:05:27.757Z,0.35
2023-02-08T18:07:56.144Z,0.31
2023-02-08T18:10:24.386Z,0.27
2023-02-08T18:12:51.301Z,0.24
2023-02-08T18:15:20.673Z,0.21
2023-02-08T18:17:48.416Z,0.20
2023-02-08T18:20:16.115Z,0.17
2023-02-08T18:22:43.473Z,0.15
2023-02-08T18:25:11.648Z,0.12
2023-02-08T18:27:38.718Z,0.10
2023-02-08T18:30:05.828Z,0.07
2023-02-08T18:32:32.334Z,0.05
2023-02-08T18:34:58.869Z,0.02
2023-02-08T18:37:27.450Z,0.01
2023-02-08T18:39:54.008Z,-0.03
2023-02-08T18:42:20.501Z,-0.04
2023-02-08T18:44:48.856Z,-0.05
2023-02-08T18:47:15.420Z,-0.10
2023-02-08T18:49:41.956Z,-0.11
2023-02-08T18:52:13.751Z,-0.13
2023-02-08T18:54:41.301Z,-0.14
2023-02-08T18:57:11.472Z,-0.15
2023-02-08T18:59:39.406Z,-0.18
2023-02-08T19:02:07.763Z,-0.20
2023-02-08T19:04:41.991Z,-0.23
2023-02-08T19:07:09.160Z,-0.23
2023-02-08T19:09:39.488Z,-0.26
2023-02-08T19:12:09.176Z,-0.26
2023-02-08T19:14:35.932Z,-0.27
2023-02-08T19:17:03.074Z,-0.29
2023-02-08T19:19:29.816Z,-0.30
2023-02-08T19:21:56.357Z,-0.31
2023-02-08T19:24:23.129Z,-0.32
2023-02-08T19:26:49.702Z,-0.32
2023-02-08T19:29:21.778Z,-0.35
2023-02-08T19:31:50.340Z,-0.37
2023-02-08T19:34:17.818Z,-0.41
2023-02-08T19:36:47.080Z,-0.44
2023-02-08T19:39:22.435Z,-0.46
2023-02-08T19:41:52.949Z,-0.47
2023-02-08T19:44:20.542Z,-0.51
2023-02-08T19:46:53.830Z,-0.52
2023-02-08T19:49:25.662Z,-0.54
2023-02-08T19:51:52.419Z,-0.56
2023-02-08T19:54:19.663Z,-0.56
2023-02-08T19:56:46.786Z,-0.57
2023-02-08T19:59:19.209Z,-0.60
2023-02-08T20:01:46.374Z,-0.61
2023-02-08T20:04:14.573Z,-0.62
2023-02-08T20:06:42.744Z,-0.65
2023-02-08T20:09:09.276Z,-0.66
2023-02-08T20:11:51.274Z,-0.67
2023-02-08T20:14:25.456Z,-0.70
2023-02-08T20:16:52.512Z,-0.73
2023-02-08T20:19:19.043Z,-0.74
2023-02-08T20:21:45.686Z,-0.75
2023-02-08T20:24:12.197Z,-0.75
2023-02-08T20:26:40.723Z,-0.75
2023-02-08T20:29:08.327Z,-0.75
2023-02-08T20:31:40.305Z,-0.78
2023-02-08T20:34:09.628Z,-0.78
2023-02-08T20:36:40.676Z,-0.77
2023-02-08T20:39:09.289Z,-0.78
2023-02-08T20:41:36.181Z,-0.80
2023-02-08T20:44:02.673Z,-0.80
2023-02-08T20:46:32.665Z,-0.80
2023-02-08T20:49:00.898Z,-0.80
2023-02-08T20:51:29.017Z,-0.80
2023-02-08T20:53:59.117Z,-0.81
2023-02-08T20:56:31.157Z,-0.82
2023-02-08T20:59:06.481Z,-0.83
2023-02-08T21:01:35.137Z,-0.83
2023-02-08T21:04:02.596Z,-0.82
2023-02-08T21:06:31.800Z,-0.83
2023-02-08T21:09:00.443Z,-0.82
2023-02-08T21:11:29.494Z,-0.84
2023-02-08T21:13:56.819Z,-0.88
2023-02-08T21:16:24.248Z,-0.91
2023-02-08T21:18:51.158Z,-0.93
2023-02-08T21:21:18.745Z,-0.94
2023-02-08T21:23:46.095Z,-0.97
2023-02-08T21:26:17.510Z,-0.99
2023-02-08T21:28:44.559Z,-1.02
2023-02-08T21:31:15.392Z,-1.05
2023-02-08T21:33:43.493Z,-1.10
2023-02-08T21:36:14.298Z,-1.12
2023-02-08T21:38:41.209Z,-1.16
2023-02-08T21:41:14.171Z,-1.20
2023-02-08T21:43:40.741Z,-1.23
2023-02-08T21:46:08.754Z,-1.25
2023-02-08T21:48:55.513Z,-1.27
2023-02-08T21:51:43.064Z,-1.30
2023-02-08T21:54:30.464Z,-1.32
2023-02-08T21:57:04.227Z,-1.39
2023-02-08T21:59:35.202Z,-1.43
2023-02-08T22:02:01.800Z,-1.47
2023-02-08T22:04:28.378Z,-1.51
2023-02-08T22:06:55.044Z,-1.57
2023-02-08T22:09:21.452Z,-1.61
2023-02-08T22:11:49.228Z,-1.63
2023-02-08T22:14:16.034Z,-1.65
2023-02-08T22:16:44.098Z,-1.66
2023-02-08T22:19:10.555Z,-1.69
2023-02-08T22:21:37.209Z,-1.70
2023-02-08T22:24:03.859Z,-1.72
2023-02-08T22:26:30.621Z,-1.74
2023-02-08T22:28:57.105Z,-1.75
2023-02-08T22:31:23.993Z,-1.77
2023-02-08T22:33:53.424Z,-1.79
2023-02-08T22:36:20.933Z,-1.83
2023-02-08T22:38:47.694Z,-1.86
2023-02-08T22:41:16.682Z,-1.90
2023-02-08T22:43:43.724Z,-1.94
2023-02-08T22:46:10.373Z,-1.95
2023-02-08T22:48:37.607Z,-2.00
2023-02-08T22:51:13.723Z,-2.05
2023-02-08T22:53:40.705Z,-2.09
2023-02-08T22:56:07.267Z,-2.14
2023-02-08T22:58:34.057Z,-2.16
2023-02-08T23:01:00.595Z,-2.18
2023-02-08T23:03:27.366Z,-2.19
2023-02-08T23:05:54.743Z,-2.20
2023-02-08T23:08:22.552Z,-2.21
2023-02-08T23:10:49.381Z,-2.25
2023-02-08T23:13:16.227Z,-2.26
2023-02-08T23:15:44.918Z,-2.27
2023-02-08T23:18:11.648Z,-2.30
2023-02-08T23:20:40.731Z,-2.30
2023-02-08T23:23:08.677Z,-2.30
2023-02-08T23:25:38.622Z,-2.30
2023-02-08T23:28:05.805Z,-2.31
2023-02-08T23:30:32.342Z,-2.31
2023-02-08T23:32:58.849Z,-2.33
2023-02-08T23:35:25.590Z,-2.32
2023-02-08T23:37:52.230Z,-2.34
2023-02-08T23:40:18.735Z,-2.33
2023-02-08T23:42:45.242Z,-2.36
2023-02-08T23:45:11.941Z,-2.38
2023-02-08T23:47:39.530Z,-2.38
2023-02-08T23:50:07.900Z,-2.41
2023-02-08T23:52:35.836Z,-2.43
2023-02-08T23:55:03.428Z,-2.44
2023-02-08T23:57:36.975Z,-2.44
